Time;durP1;ratioP1;P1;durP2;ratioP2;P2;SDS_P1;SDS_P2;PMS_P1;PMS_P2;Temp;Humidity;BMP_temperature;BMP_pressure;BME280_temperature;BME280_humidity;BME280_pressure;Samples;Min_cycle;Max_cycle;Signal;HPM_P1;HPM_P2
2021/12/30 00:00:22;;;;;;;6.50;3.75;;;;;;;5.27;79.04;98843.00;5087700;28;20094;-68
2021/12/30 00:02:54;;;;;;;6.70;4.97;;;;;;;5.20;79.43;98838.91;5087649;28;20041;-67
2021/12/30 00:05:27;;;;;;;5.13;4.20;;;;;;;5.17;79.76;98841.66;5087752;28;20040;-68
2021/12/30 00:07:59;;;;;;;8.60;5.38;;;;;;;5.08;80.09;98842.91;5087718;28;20228;-68
2021/12/30 00:10:31;;;;;;;8.02;4.88;;;;;;;4.84;80.19;98803.63;5087485;28;20090;-68
2021/12/30 00:13:04;;;;;;;6.65;5.35;;;;;;;5.01;80.31;98849.31;5087366;28;20041;-68
2021/12/30 00:15:38;;;;;;;8.40;5.65;;;;;;;5.05;80.14;98847.44;5087326;28;20048;-68
2021/12/30 00:18:11;;;;;;;5.18;3.97;;;;;;;5.05;80.16;98842.16;5087545;28;20041;-68
2021/12/30 00:20:43;;;;;;;6.07;4.60;;;;;;;5.04;80.20;98843.94;5087219;28;20040;-68
2021/12/30 00:23:16;;;;;;;7.65;5.80;;;;;;;5.05;80.16;98852.69;5087159;28;20090;-66
2021/12/30 00:25:48;;;;;;;10.73;5.57;;;;;;;5.02;80.29;98852.81;5087243;28;20086;-67
2021/12/30 00:28:23;;;;;;;8.20;5.32;;;;;;;4.99;80.21;98861.66;5069736;28;20086;-68
2021/12/30 00:30:56;;;;;;;8.15;4.95;;;;;;;4.02;80.35;98705.41;5086869;28;20064;-68
2021/12/30 00:33:32;;;;;;;8.52;4.90;;;;;;;4.95;80.46;98856.59;5087134;28;20087;-67
2021/12/30 00:36:07;;;;;;;9.65;4.80;;;;;;;4.93;80.53;98859.28;5087144;28;20073;-67
2021/12/30 00:38:41;;;;;;;8.15;5.15;;;;;;;4.89;80.59;98852.44;5086835;28;20086;-68
2021/12/30 00:41:14;;;;;;;9.00;5.50;;;;;;;4.88;80.55;98857.72;5086823;28;20248;-68
2021/12/30 00:43:47;;;;;;;7.90;5.20;;;;;;;4.89;80.62;98855.06;5087035;28;20040;-68
2021/12/30 00:46:21;;;;;;;6.47;4.65;;;;;;;3.93;80.56;98700.53;5086604;28;20044;-68
2021/12/30 00:48:53;;;;;;;7.60;4.68;;;;;;;4.88;80.66;98862.97;5068358;28;20044;-68
2021/12/30 00:51:25;;;;;;;8.13;4.97;;;;;;;4.84;80.70;98859.63;5086828;28;20040;-68
2021/12/30 00:53:58;;;;;;;9.25;4.78;;;;;;;4.87;80.73;98870.00;5069333;28;20044;-68
2021/12/30 00:56:30;;;;;;;7.40;3.95;;;;;;;4.67;80.58;98834.03;5086469;28;20041;-68
2021/12/30 00:59:02;;;;;;;6.28;4.93;;;;;;;4.89;80.61;98886.59;5086686;28;20044;-68
2021/12/30 01:01:36;;;;;;;7.43;4.15;;;;;;;4.81;80.91;98880.75;5069164;28;20094;-68
2021/12/30 01:04:08;;;;;;;8.43;5.05;;;;;;;4.78;81.03;98873.84;5086363;28;20288;-68
2021/12/30 01:06:41;;;;;;;6.35;4.07;;;;;;;4.80;80.84;98882.50;5086179;28;20037;-68
2021/12/30 01:09:13;;;;;;;6.15;4.47;;;;;;;4.84;80.82;98874.50;5086236;28;20245;-68
2021/12/30 01:11:45;;;;;;;5.47;4.32;;;;;;;4.85;80.83;98882.34;5086112;28;20082;-68
2021/12/30 01:14:19;;;;;;;5.93;4.35;;;;;;;4.85;80.79;98891.97;5086126;28;20040;-68
2021/12/30 01:16:56;;;;;;;5.63;4.03;;;;;;;4.61;80.77;98850.03;5086114;28;20040;-68
2021/12/30 01:22:27;;;;;;;4.43;3.42;;;;;;;4.87;80.76;98890.16;5103824;27;20610;-68
2021/12/30 01:25:00;;;;;;;6.20;4.38;;;;;;;4.91;80.68;98891.78;5102733;28;20040;-68
2021/12/30 01:27:33;;;;;;;5.97;3.95;;;;;;;4.90;80.73;98896.16;5102807;28;20055;-67
2021/12/30 01:30:09;;;;;;;6.82;4.13;;;;;;;4.93;80.54;98913.56;5102785;28;20216;-67
2021/12/30 01:32:42;;;;;;;5.95;4.05;;;;;;;4.59;80.70;98853.63;5103004;28;20040;-67
2021/12/30 01:35:22;;;;;;;8.55;4.80;;;;;;;4.87;80.96;98904.13;5102639;28;20040;-67
2021/12/30 01:37:59;;;;;;;13.23;8.50;;;;;;;4.85;81.08;98905.97;5101846;28;20047;-67
2021/12/30 01:40:32;;;;;;;12.52;10.00;;;;;;;4.82;81.18;98906.94;5102535;28;20334;-67
2021/12/30 01:43:05;;;;;;;12.73;9.32;;;;;;;3.95;81.04;98778.22;5102526;28;20041;-68
2021/12/30 01:45:38;;;;;;;12.32;8.95;;;;;;;4.88;80.93;98897.09;5102490;28;20040;-67
2021/12/30 01:48:11;;;;;;;11.75;8.45;;;;;;;4.91;80.91;98892.63;5101480;28;20040;-67
2021/12/30 01:50:44;;;;;;;9.98;7.15;;;;;;;4.93;80.80;98890.78;5102626;28;20051;-67
2021/12/30 01:53:17;;;;;;;11.88;7.55;;;;;;;4.92;80.93;98878.59;5102574;28;20036;-67
2021/12/30 01:55:50;;;;;;;8.82;5.93;;;;;;;4.92;80.93;98875.94;5102545;28;20059;-67
2021/12/30 01:58:23;;;;;;;10.52;6.05;;;;;;;4.94;81.16;98875.91;5102237;28;20200;-68
2021/12/30 02:00:56;;;;;;;7.13;4.60;;;;;;;4.95;80.99;98886.34;5102394;28;20091;-67
2021/12/30 02:03:28;;;;;;;6.57;4.72;;;;;;;4.94;80.98;98892.50;5102385;28;20040;-67
2021/12/30 02:06:00;;;;;;;6.82;4.18;;;;;;;4.93;81.05;98892.56;5102320;28;20041;-67
2021/12/30 02:08:34;;;;;;;7.20;4.80;;;;;;;4.94;80.85;98889.88;5102327;28;20048;-67
2021/12/30 02:11:06;;;;;;;6.10;4.53;;;;;;;4.96;81.02;98897.69;5101982;28;20052;-67
2021/12/30 02:13:39;;;;;;;6.97;5.07;;;;;;;4.94;81.01;98884.63;5101852;28;20036;-67
2021/12/30 02:16:11;;;;;;;6.60;3.67;;;;;;;4.96;80.81;98882.78;5102104;28;20048;-67
2021/12/30 02:18:44;;;;;;;5.45;4.40;;;;;;;4.74;80.75;98863.53;5101301;28;20292;-67
2021/12/30 02:21:18;;;;;;;6.35;4.15;;;;;;;4.97;80.84;98884.50;5101620;28;20056;-67
2021/12/30 02:23:50;;;;;;;7.35;4.97;;;;;;;4.69;80.84;98832.19;5102031;28;20051;-67
2021/12/30 02:26:23;;;;;;;7.47;4.10;;;;;;;4.99;80.82;98879.19;5100876;28;20040;-67
2021/12/30 02:28:55;;;;;;;5.93;4.32;;;;;;;4.96;80.93;98885.41;5101806;28;20048;-67
2021/12/30 02:31:30;;;;;;;5.82;4.00;;;;;;;4.95;80.94;98885.47;5101513;28;20044;-68
2021/12/30 02:34:02;;;;;;;6.45;4.28;;;;;;;4.98;80.92;98890.63;5088013;28;20040;-67
2021/12/30 02:36:38;;;;;;;6.07;3.72;;;;;;;4.98;80.89;98894.09;5088285;28;20041;-67
2021/12/30 02:39:12;;;;;;;7.13;3.55;;;;;;;4.97;80.95;98891.53;5087982;28;20048;-67
2021/12/30 02:41:44;;;;;;;5.15;3.75;;;;;;;4.90;81.22;98885.66;5087868;28;20044;-68
2021/12/30 02:44:17;;;;;;;5.95;4.28;;;;;;;4.88;81.64;98902.38;5087093;28;20047;-68
2021/12/30 02:46:50;;;;;;;8.63;4.97;;;;;;;4.85;81.47;98879.72;5088132;28;20047;-68
2021/12/30 02:49:22;;;;;;;8.25;4.72;;;;;;;4.84;81.50;98885.88;5088032;28;20048;-67
2021/12/30 02:51:54;;;;;;;6.38;4.95;;;;;;;4.55;81.50;98831.03;5087964;28;20053;-67
2021/12/30 02:54:22;;;;;;;5.38;3.53;;;;;;;4.82;81.57;98885.09;5087960;28;20044;-67
2021/12/30 02:56:53;;;;;;;6.85;3.88;;;;;;;4.60;81.67;98848.31;5087925;28;20087;-67
2021/12/30 02:59:23;;;;;;;7.78;4.78;;;;;;;4.81;81.55;98889.47;5087881;28;20297;-67
2021/12/30 03:01:55;;;;;;;5.28;3.58;;;;;;;4.84;81.40;98900.78;5087781;28;20040;-67
2021/12/30 03:04:23;;;;;;;5.22;3.78;;;;;;;4.87;81.30;98911.16;5087832;28;20040;-67
2021/12/30 03:06:55;;;;;;;5.45;3.45;;;;;;;4.88;81.38;98915.50;5087759;28;20044;-67
2021/12/30 03:09:24;;;;;;;5.68;3.80;;;;;;;4.93;81.16;98916.19;5087719;28;20041;-68
2021/12/30 03:11:56;;;;;;;5.32;4.20;;;;;;;4.93;81.07;98910.94;5087659;28;20204;-67
2021/12/30 03:14:26;;;;;;;5.20;3.80;;;;;;;4.95;80.85;98919.63;5087342;28;20041;-68
2021/12/30 03:16:55;;;;;;;6.22;3.20;;;;;;;4.96;80.95;98922.19;5087283;28;20037;-68
2021/12/30 03:19:25;;;;;;;5.07;3.13;;;;;;;4.97;80.92;98923.91;5087528;28;20082;-68
2021/12/30 03:21:57;;;;;;;4.30;3.15;;;;;;;4.98;80.99;98930.00;5086923;28;20063;-68
2021/12/30 03:24:25;;;;;;;5.53;3.35;;;;;;;4.69;80.98;98887.31;5087409;28;20028;-67
2021/12/30 03:26:56;;;;;;;4.47;2.88;;;;;;;4.94;81.00;98933.66;5087210;28;20036;-68
2021/12/30 03:29:26;;;;;;;4.43;3.33;;;;;;;4.88;81.20;98944.38;5087497;28;20051;-68
2021/12/30 03:31:56;;;;;;;4.63;3.13;;;;;;;4.88;81.02;98942.59;5087456;28;20051;-67
2021/12/30 03:34:27;;;;;;;6.82;3.00;;;;;;;4.88;81.05;98942.59;5086453;28;20247;-67
2021/12/30 03:36:58;;;;;;;3.65;2.80;;;;;;;4.89;81.17;98961.84;5087106;28;20040;-67
2021/12/30 03:39:27;;;;;;;4.68;2.67;;;;;;;4.89;81.13;98948.72;5086385;28;20047;-67
2021/12/30 03:41:57;;;;;;;5.50;3.17;;;;;;;4.90;81.07;98948.69;5087215;28;20028;-67
2021/12/30 03:44:27;;;;;;;4.80;2.70;;;;;;;4.94;81.00;98949.44;5085200;28;20094;-67
2021/12/30 03:46:57;;;;;;;4.60;2.53;;;;;;;4.52;80.98;98881.88;5086791;28;20134;-67
2021/12/30 03:49:28;;;;;;;4.47;2.70;;;;;;;5.00;80.74;98950.03;5086949;28;20040;-67
2021/12/30 03:51:59;;;;;;;5.75;3.28;;;;;;;5.01;80.81;98950.91;5086869;28;20051;-67
2021/12/30 03:54:28;;;;;;;5.03;2.70;;;;;;;5.01;80.78;98946.50;5086790;28;20040;-67
2021/12/30 03:56:59;;;;;;;4.05;2.67;;;;;;;5.03;80.87;98949.91;5086696;28;20213;-67
2021/12/30 03:59:29;;;;;;;3.80;2.45;;;;;;;5.04;80.82;98956.88;5086637;28;20040;-67
2021/12/30 04:01:59;;;;;;;3.63;2.42;;;;;;;5.03;80.92;98968.31;5086547;28;20045;-67
2021/12/30 04:04:29;;;;;;;4.72;3.10;;;;;;;5.07;80.76;98969.91;5086589;28;20040;-67
2021/12/30 04:07:01;;;;;;;4.95;3.33;;;;;;;5.09;80.67;98965.44;5086250;28;20048;-67
2021/12/30 04:09:30;;;;;;;4.38;2.50;;;;;;;5.12;80.64;98970.56;5086182;28;20060;-67
2021/12/30 04:12:00;;;;;;;6.80;2.88;;;;;;;5.11;80.65;98979.38;5086430;28;20044;-67
2021/12/30 04:14:31;;;;;;;5.13;2.40;;;;;;;5.10;80.70;98966.28;5086444;28;20040;-67
2021/12/30 04:17:00;;;;;;;3.42;2.55;;;;;;;5.10;80.81;98974.19;5086371;28;20048;-67
2021/12/30 04:19:31;;;;;;;5.57;3.08;;;;;;;5.07;81.03;98971.66;5086324;28;20313;-67
2021/12/30 04:22:03;;;;;;;4.65;3.17;;;;;;;5.07;81.01;98975.16;5085822;28;20114;-67
2021/12/30 04:24:31;;;;;;;4.95;3.30;;;;;;;5.09;81.19;98981.19;5085614;28;20116;-67
2021/12/30 04:27:01;;;;;;;5.95;2.85;;;;;;;5.08;81.12;98968.97;5085405;28;20145;-67
2021/12/30 04:29:32;;;;;;;4.55;2.97;;;;;;;5.06;81.26;98972.59;5086025;28;20311;-67
2021/12/30 04:32:02;;;;;;;4.88;2.60;;;;;;;5.07;81.25;98972.53;5085310;28;20067;-67
2021/12/30 04:34:32;;;;;;;4.07;2.70;;;;;;;5.07;81.17;98976.94;5086000;28;20059;-67
2021/12/30 04:37:04;;;;;;;4.63;3.10;;;;;;;5.04;81.53;98982.28;5085749;28;20041;-67
2021/12/30 04:39:33;;;;;;;6.10;3.25;;;;;;;5.05;81.27;98984.88;5086196;28;20032;-67
2021/12/30 04:42:03;;;;;;;5.57;3.42;;;;;;;5.05;81.29;98984.88;5085882;28;20297;-67
2021/12/30 04:44:33;;;;;;;7.32;2.90;;;;;;;5.09;81.28;98998.72;5085845;28;20036;-67
2021/12/30 04:47:04;;;;;;;6.90;3.60;;;;;;;5.08;81.48;99005.75;5084851;28;20040;-67
2021/12/30 04:49:34;;;;;;;5.22;2.58;;;;;;;5.08;81.40;99010.16;5085882;28;20036;-67
2021/12/30 04:52:06;;;;;;;3.92;2.60;;;;;;;5.07;81.43;99019.81;5084772;28;20044;-67
2021/12/30 04:54:34;;;;;;;6.72;2.75;;;;;;;5.11;81.41;99020.53;5085803;28;20205;-67
2021/12/30 04:57:05;;;;;;;6.30;2.88;;;;;;;5.10;81.39;99024.09;5085610;28;20041;-67
2021/12/30 04:59:35;;;;;;;5.45;2.53;;;;;;;5.09;81.68;99032.88;5085707;28;20082;-67
2021/12/30 05:02:05;;;;;;;4.50;2.90;;;;;;;5.06;81.89;99030.38;5085591;28;20051;-67
2021/12/30 05:04:35;;;;;;;5.15;2.63;;;;;;;5.00;82.21;99031.47;5085628;28;20194;-67
2021/12/30 05:07:07;;;;;;;4.70;3.13;;;;;;;5.00;82.59;99038.47;5085642;28;20041;-67
2021/12/30 05:09:36;;;;;;;6.25;3.40;;;;;;;4.95;82.90;99040.44;5085632;28;20036;-67
2021/12/30 05:12:07;;;;;;;4.45;3.33;;;;;;;4.95;83.01;99038.66;5085592;28;20059;-67
2021/12/30 05:14:36;;;;;;;7.00;3.33;;;;;;;4.90;83.44;99032.72;5085572;28;20036;-67
2021/12/30 05:17:06;;;;;;;5.03;2.95;;;;;;;4.93;83.29;99037.00;5085321;28;20232;-67
2021/12/30 05:19:36;;;;;;;5.00;3.50;;;;;;;4.90;83.29;99037.97;5085492;28;20037;-67
2021/12/30 05:22:08;;;;;;;4.35;2.58;;;;;;;4.94;83.15;99036.09;5085382;28;20053;-67
2021/12/30 05:24:37;;;;;;;4.68;3.10;;;;;;;4.94;83.14;99036.09;5085462;28;20330;-67
2021/12/30 05:27:07;;;;;;;4.05;3.08;;;;;;;4.91;83.29;99026.56;5085108;28;20365;-68
2021/12/30 05:29:38;;;;;;;4.35;3.10;;;;;;;4.90;83.39;99023.97;5085148;28;20208;-67
2021/12/30 05:32:08;;;;;;;5.97;3.55;;;;;;;4.88;83.71;99025.78;5085316;28;20040;-67
2021/12/30 05:34:38;;;;;;;5.13;2.90;;;;;;;4.81;83.96;99026.00;5085077;28;20086;-67
2021/12/30 05:37:10;;;;;;;4.82;3.65;;;;;;;4.86;83.62;99027.59;5085067;28;20040;-67
2021/12/30 05:39:41;;;;;;;5.53;2.88;;;;;;;4.88;83.59;99049.41;5085270;28;20304;-67
2021/12/30 05:42:09;;;;;;;6.47;3.50;;;;;;;4.89;83.47;99052.00;5084998;28;20079;-67
2021/12/30 05:44:40;;;;;;;3.97;2.88;;;;;;;4.90;83.45;99056.34;5085258;28;20052;-67
2021/12/30 05:47:09;;;;;;;7.78;3.95;;;;;;;4.89;83.60;99061.63;5085276;28;20040;-67
2021/12/30 05:49:39;;;;;;;5.53;3.60;;;;;;;4.90;83.61;99061.59;5085184;28;20041;-67
2021/12/30 05:52:11;;;;;;;5.00;3.10;;;;;;;4.91;83.49;99052.81;5085220;28;20059;-67
2021/12/30 05:54:40;;;;;;;6.90;3.65;;;;;;;4.90;83.57;99058.97;5085125;28;20056;-67
2021/12/30 05:57:11;;;;;;;5.30;3.50;;;;;;;4.92;83.80;99062.41;5085183;28;20048;-67
2021/12/30 05:59:41;;;;;;;5.57;3.80;;;;;;;4.91;83.69;99076.44;5084839;28;20040;-67
2021/12/30 06:02:11;;;;;;;5.88;3.83;;;;;;;4.94;83.75;99076.34;5084978;28;20285;-68
2021/12/30 06:04:41;;;;;;;5.43;3.15;;;;;;;4.91;84.18;99076.44;5085101;28;20043;-67
2021/12/30 06:07:13;;;;;;;5.80;3.95;;;;;;;4.88;84.27;99092.28;5085193;28;20086;-67
2021/12/30 06:09:42;;;;;;;6.28;3.72;;;;;;;4.90;84.17;99087.88;5088550;28;20048;-67
2021/12/30 06:12:12;;;;;;;5.45;3.65;;;;;;;4.89;84.24;99088.78;5088462;28;20296;-67
2021/12/30 06:14:42;;;;;;;4.75;3.60;;;;;;;4.90;84.28;99087.00;5088461;28;20300;-67
2021/12/30 06:17:14;;;;;;;7.22;4.22;;;;;;;4.90;84.46;99089.63;5088850;28;20041;-67
2021/12/30 06:19:43;;;;;;;5.53;3.47;;;;;;;4.92;84.22;99093.06;5088372;28;20052;-67
2021/12/30 06:22:14;;;;;;;8.77;4.50;;;;;;;4.94;83.88;99084.22;5088183;28;20063;-67
2021/12/30 06:24:44;;;;;;;5.60;4.38;;;;;;;-2.37;83.14;97864.94;5088273;28;20090;-67
2021/12/30 06:27:13;;;;;;;5.93;3.65;;;;;;;4.98;84.01;99096.31;5088585;28;20203;-67
2021/12/30 06:29:43;;;;;;;6.85;4.85;;;;;;;4.97;83.81;99101.63;5088223;28;20036;-67
2021/12/30 06:32:14;;;;;;;6.13;3.67;;;;;;;4.97;83.94;99113.00;5088206;28;20047;-68
2021/12/30 06:34:44;;;;;;;5.15;3.55;;;;;;;4.99;83.57;99116.41;5088022;28;20044;-67
2021/12/30 06:37:15;;;;;;;6.40;4.15;;;;;;;5.01;83.74;99127.72;5087944;28;20037;-67
2021/12/30 06:39:44;;;;;;;4.55;3.35;;;;;;;5.02;84.09;99136.47;5087926;28;20059;-67
2021/12/30 06:42:15;;;;;;;5.47;3.80;;;;;;;5.02;84.10;99133.84;5088176;28;20040;-67
2021/12/30 06:44:45;;;;;;;4.90;3.40;;;;;;;5.05;83.96;99146.84;5087770;28;20044;-67
2021/12/30 06:47:15;;;;;;;8.02;4.28;;;;;;;5.05;84.68;99146.84;5088011;28;20052;-67
2021/12/30 06:49:45;;;;;;;5.68;3.45;;;;;;;5.06;84.52;99149.44;5088062;28;20048;-67
2021/12/30 06:52:17;;;;;;;4.88;3.22;;;;;;;5.12;84.48;99153.59;5087921;28;20048;-67
2021/12/30 06:54:46;;;;;;;6.28;3.53;;;;;;;5.15;84.67;99148.25;5087965;28;20044;-67
2021/12/30 06:57:16;;;;;;;6.55;4.00;;;;;;;3.94;84.86;98981.00;5087599;28;20049;-67
2021/12/30 06:59:47;;;;;;;5.88;4.10;;;;;;;4.90;85.00;99122.00;5088428;28;20033;-67
2021/12/30 07:02:17;;;;;;;5.90;4.20;;;;;;;5.17;84.94;99172.69;5087824;28;20047;-67
2021/12/30 07:04:47;;;;;;;5.22;4.18;;;;;;;5.20;84.77;99177.81;5086624;28;20219;-67
2021/12/30 07:07:19;;;;;;;8.18;4.75;;;;;;;5.20;84.98;99172.56;5087421;28;20047;-67
2021/12/30 07:09:48;;;;;;;8.48;4.90;;;;;;;5.19;85.38;99173.50;5087707;28;20048;-67
2021/12/30 07:12:18;;;;;;;7.25;5.40;;;;;;;5.22;85.54;99186.50;5087297;28;20047;-67
2021/12/30 07:14:48;;;;;;;7.35;4.68;;;;;;;5.24;85.58;99178.56;5087292;28;20045;-67
2021/12/30 07:17:18;;;;;;;8.43;5.45;;;;;;;5.00;85.75;99140.91;5087140;28;20165;-67
2021/12/30 07:19:48;;;;;;;9.32;5.65;;;;;;;5.27;85.79;99187.19;5087344;28;20048;-67
2021/12/30 07:22:20;;;;;;;6.90;5.47;;;;;;;5.28;85.92;99183.66;5086983;28;20049;-68
2021/12/30 07:24:49;;;;;;;9.52;5.38;;;;;;;5.29;86.14;99190.63;5087023;28;20051;-67
2021/12/30 07:27:19;;;;;;;6.95;5.35;;;;;;;5.32;85.63;99201.03;5087060;28;20048;-68
2021/12/30 07:29:49;;;;;;;8.70;5.47;;;;;;;5.36;85.47;99214.91;5087208;28;20045;-67
2021/12/30 07:32:20;;;;;;;7.93;4.70;;;;;;;5.38;85.37;99219.22;5087183;28;20048;-67
2021/12/30 07:34:50;;;;;;;6.95;4.57;;;;;;;5.42;85.29;99210.28;5087184;28;20051;-67
2021/12/30 07:37:21;;;;;;;9.65;4.95;;;;;;;5.41;85.46;99215.59;5087130;28;20063;-67
2021/12/30 07:39:50;;;;;;;7.85;6.32;;;;;;;5.43;85.60;99229.56;5086809;28;20204;-68
2021/12/30 07:42:21;;;;;;;7.30;5.28;;;;;;;5.43;85.66;99227.78;5087067;28;20040;-67
2021/12/30 07:44:51;;;;;;;12.73;6.55;;;;;;;5.46;85.81;99232.06;5086894;28;20045;-68
2021/12/30 07:47:21;;;;;;;10.07;7.07;;;;;;;5.47;85.56;99236.41;5086920;28;20098;-67
2021/12/30 07:49:51;;;;;;;9.82;7.25;;;;;;;5.47;85.44;99248.69;5086773;28;20296;-68
2021/12/30 07:52:23;;;;;;;10.32;6.78;;;;;;;5.45;85.33;99243.50;5086520;28;20040;-67
2021/12/30 07:54:52;;;;;;;10.13;6.90;;;;;;;5.47;85.40;99241.66;5086774;28;20082;-68
2021/12/30 07:57:22;;;;;;;9.35;6.40;;;;;;;5.53;85.33;99245.84;5086619;28;20098;-68
2021/12/30 07:59:55;;;;;;;9.77;5.80;;;;;;;4.90;85.22;99142.16;5086796;28;20193;-68
2021/12/30 08:02:28;;;;;;;6.65;5.72;;;;;;;5.60;85.66;99245.56;5086344;28;20040;-68
2021/12/30 08:05:00;;;;;;;7.75;5.15;;;;;;;5.36;85.55;99199.16;5086510;28;20063;-68
2021/12/30 08:07:34;;;;;;;7.32;5.38;;;;;;;5.65;85.73;99234.88;5085586;28;20056;-67
2021/12/30 08:10:10;;;;;;;9.88;6.78;;;;;;;5.70;85.90;99235.56;5086062;28;20040;-67
2021/12/30 08:12:45;;;;;;;4.93;3.75;;;;;;;5.86;86.28;99226.19;5086415;28;20048;-67
2021/12/30 08:15:18;;;;;;;5.05;3.88;;;;;;;6.10;86.77;99212.09;5086387;28;20296;-68
2021/12/30 08:17:51;;;;;;;5.20;3.47;;;;;;;6.23;86.98;99216.88;5085549;28;20292;-68
2021/12/30 08:20:24;;;;;;;8.00;3.80;;;;;;;6.31;86.50;99207.75;5085781;28;20075;-68
2021/12/30 08:22:58;;;;;;;5.13;3.78;;;;;;;6.39;86.58;99215.34;5086282;28;20048;-68
2021/12/30 08:25:30;;;;;;;5.60;3.47;;;;;;;6.48;86.12;99220.22;5085843;28;20205;-68
2021/12/30 08:28:03;;;;;;;5.28;4.13;;;;;;;6.60;86.41;99219.72;5085317;28;20048;-67
2021/12/30 08:30:35;;;;;;;4.05;3.00;;;;;;;6.68;86.35;99212.38;5085319;28;20041;-68
2021/12/30 08:33:07;;;;;;;7.57;6.50;;;;;;;6.69;85.76;99203.53;5086088;28;20316;-68
2021/12/30 08:35:40;;;;;;;33.22;22.85;;;;;;;6.82;86.07;99217.09;5085770;28;20063;-68
2021/12/30 08:38:14;;;;;;;24.60;17.13;;;;;;;6.91;86.22;99216.69;5085712;28;20037;-68
2021/12/30 08:40:47;;;;;;;24.38;17.38;;;;;;;5.33;85.81;98925.97;5085725;28;20047;-68
2021/12/30 08:43:19;;;;;;;23.00;15.68;;;;;;;7.19;85.93;99224.28;5085717;28;20047;-68
2021/12/30 08:45:52;;;;;;;14.38;9.80;;;;;;;6.66;85.39;99136.97;5085447;28;20040;-68
2021/12/30 08:48:24;;;;;;;5.93;4.90;;;;;;;7.41;85.06;99224.22;5085584;28;20040;-68
2021/12/30 08:50:57;;;;;;;10.07;6.88;;;;;;;7.49;84.32;99230.00;5085404;28;20139;-68
2021/12/30 08:53:31;;;;;;;7.28;5.28;;;;;;;7.59;84.28;99235.72;5085386;28;20040;-68
2021/12/30 08:56:03;;;;;;;6.53;4.75;;;;;;;7.67;83.92;99226.53;5084752;28;20040;-68
2021/12/30 08:58:36;;;;;;;7.82;5.07;;;;;;;7.74;83.79;99224.50;5085759;28;20059;-68
2021/12/30 09:01:09;;;;;;;13.07;8.32;;;;;;;7.81;83.38;99227.69;5085620;28;20040;-68
2021/12/30 09:03:42;;;;;;;11.50;6.95;;;;;;;7.87;83.12;99222.13;5085335;28;20040;-68
2021/12/30 09:06:14;;;;;;;5.10;3.58;;;;;;;7.86;82.94;99221.28;5085424;28;20051;-68
2021/12/30 09:08:48;;;;;;;3.20;2.40;;;;;;;7.91;82.66;99224.56;5084766;28;20041;-68
2021/12/30 09:11:21;;;;;;;2.92;1.80;;;;;;;7.92;82.50;99223.63;5085261;28;20346;-68
2021/12/30 09:13:53;;;;;;;3.92;2.20;;;;;;;7.99;82.37;99224.22;5085505;28;20059;-67
2021/12/30 09:16:25;;;;;;;3.10;1.83;;;;;;;8.00;82.21;99218.84;5085434;28;20204;-68
2021/12/30 09:18:57;;;;;;;2.90;1.75;;;;;;;8.05;82.08;99216.00;5085477;28;20047;-68
2021/12/30 09:21:30;;;;;;;4.97;2.70;;;;;;;8.09;81.95;99211.44;5084351;28;20056;-68
2021/12/30 09:24:04;;;;;;;4.40;2.53;;;;;;;8.13;81.75;99218.28;5085394;28;20040;-68
2021/12/30 09:26:37;;;;;;;3.78;2.38;;;;;;;8.20;81.39;99214.44;5084937;28;20040;-68
2021/12/30 09:29:11;;;;;;;7.43;5.53;;;;;;;8.05;80.37;99220.44;5085314;28;20047;-68
2021/12/30 09:31:46;;;;;;;7.45;5.82;;;;;;;7.80;80.42;99220.72;5085036;28;20192;-69
2021/12/30 09:34:20;;;;;;;9.90;8.32;;;;;;;7.64;80.49;99216.13;5085235;28;20051;-69
2021/12/30 09:36:52;;;;;;;9.65;8.02;;;;;;;7.58;80.87;99226.09;5084213;28;20040;-68
2021/12/30 09:39:26;;;;;;;10.63;8.05;;;;;;;7.54;81.22;99222.75;5085020;28;20040;-69
2021/12/30 09:41:58;;;;;;;8.18;6.78;;;;;;;7.50;81.09;99229.09;5084381;28;20036;-69
2021/12/30 09:44:31;;;;;;;11.05;7.82;;;;;;;6.57;81.11;99111.91;5089172;28;20289;-69
2021/12/30 09:47:04;;;;;;;11.68;8.75;;;;;;;7.26;81.13;99187.97;5089006;28;20040;-69
2021/12/30 09:49:37;;;;;;;9.00;7.75;;;;;;;7.57;81.07;99240.22;5088212;28;20040;-69
2021/12/30 09:52:09;;;;;;;16.88;9.10;;;;;;;7.60;81.00;99238.31;5088904;28;20043;-68
2021/12/30 09:54:43;;;;;;;12.13;7.63;;;;;;;7.67;81.05;99239.75;5088997;28;20051;-69
2021/12/30 09:57:16;;;;;;;11.43;7.67;;;;;;;7.76;81.18;99246.38;5088857;28;20040;-69
2021/12/30 09:59:48;;;;;;;9.90;7.45;;;;;;;7.86;80.96;99241.53;5088585;28;20384;-69
2021/12/30 10:02:20;;;;;;;10.90;8.27;;;;;;;7.89;80.86;99247.53;5088768;28;20048;-69
2021/12/30 10:05:05;;;;;;;8.48;6.57;;;;;;;8.02;80.69;99232.84;5087701;28;20056;-69
2021/12/30 10:07:39;;;;;;;6.28;3.97;;;;;;;8.20;80.31;99239.03;5088639;28;20236;-69
2021/12/30 10:10:30;;;;;;;4.85;3.08;;;;;;;8.35;80.12;99240.94;5088667;28;20048;-69
2021/12/30 10:13:19;;;;;;;4.82;3.20;;;;;;;8.46;79.89;99240.44;5088753;28;20296;-69
2021/12/30 10:15:54;;;;;;;3.28;2.35;;;;;;;8.58;79.50;99234.56;5088630;28;20056;-68
2021/12/30 10:18:42;;;;;;;3.45;2.30;;;;;;;8.72;79.19;99225.09;5088624;28;20051;-69
2021/12/30 10:21:17;;;;;;;4.75;2.58;;;;;;;8.83;78.85;99225.41;5088114;28;20332;-68
2021/12/30 10:23:51;;;;;;;3.83;2.00;;;;;;;8.76;78.07;99193.16;5087437;28;20047;-68
2021/12/30 10:26:26;;;;;;;4.03;2.55;;;;;;;9.08;78.11;99219.75;5088489;28;20324;-68
2021/12/30 10:29:02;;;;;;;5.18;2.33;;;;;;;9.14;77.61;99170.06;5088118;28;20040;-68
2021/12/30 10:31:36;;;;;;;4.85;2.85;;;;;;;9.71;77.11;99206.78;5088004;28;20040;-68
2021/12/30 10:34:09;;;;;;;3.00;2.20;;;;;;;9.73;76.01;99194.31;5088070;28;20040;-66
2021/12/30 10:36:43;;;;;;;3.35;2.10;;;;;;;10.07;75.92;99211.84;5088068;28;20512;-67
2021/12/30 10:39:19;;;;;;;3.85;2.80;;;;;;;10.15;75.52;99214.94;5087696;28;20044;-67
2021/12/30 10:41:54;;;;;;;3.85;2.50;;;;;;;10.16;75.30;99220.16;5087081;28;20052;-68
2021/12/30 10:44:50;;;;;;;4.03;2.28;;;;;;;10.21;74.93;99227.84;5087816;28;20036;-69
2021/12/30 10:47:25;;;;;;;7.63;2.83;;;;;;;10.26;75.60;99224.00;5087924;28;20047;-67
2021/12/30 10:49:57;;;;;;;5.07;2.75;;;;;;;10.31;74.69;99220.22;5087021;28;20224;-68
2021/12/30 10:52:30;;;;;;;2.53;1.70;;;;;;;10.43;74.78;99230.13;5087709;28;20232;-69
2021/12/30 10:55:00;;;;;;;3.17;1.90;;;;;;;10.54;74.37;99218.00;5087650;28;20054;-70
2021/12/30 10:57:31;;;;;;;2.80;1.90;;;;;;;10.82;73.90;99213.78;5087677;28;20041;-70
2021/12/30 11:00:00;;;;;;;3.67;2.10;;;;;;;11.15;73.03;99214.44;5087619;28;20102;-70
2021/12/30 11:02:30;;;;;;;4.55;2.33;;;;;;;11.15;72.95;99156.09;5087716;28;20319;-68
2021/12/30 11:05:05;;;;;;;4.57;2.20;;;;;;;11.65;72.09;99209.66;5087376;28;20051;-68
2021/12/30 11:07:43;;;;;;;3.58;2.33;;;;;;;11.98;72.43;99209.34;5087253;28;20051;-68
2021/12/30 11:10:17;;;;;;;3.78;2.00;;;;;;;12.22;71.14;99207.00;5087274;28;20048;-68
2021/12/30 11:12:51;;;;;;;4.07;2.42;;;;;;;12.59;70.74;99202.81;5087538;28;20040;-67
2021/12/30 11:15:25;;;;;;;2.78;1.95;;;;;;;12.09;70.36;99108.63;5087236;28;20044;-68
2021/12/30 11:18:06;;;;;;;5.35;2.38;;;;;;;13.14;67.84;99208.81;5087180;28;20036;-67
2021/12/30 11:20:40;;;;;;;2.58;1.70;;;;;;;13.35;68.30;99201.16;5087291;28;20071;-67
2021/12/30 11:23:14;;;;;;;3.53;2.05;;;;;;;13.53;68.17;99207.06;5087156;28;20055;-68
2021/12/30 11:25:47;;;;;;;4.13;1.80;;;;;;;13.54;67.11;99165.31;5087040;28;20048;-68
2021/12/30 11:28:21;;;;;;;4.50;2.20;;;;;;;13.96;65.96;99188.03;5086808;28;20036;-68
2021/12/30 11:30:54;;;;;;;6.63;1.92;;;;;;;14.15;66.83;99185.75;5087200;28;20086;-69
2021/12/30 11:33:27;;;;;;;3.08;2.15;;;;;;;14.25;66.65;99188.59;5086904;28;20041;-70
2021/12/30 11:35:59;;;;;;;3.00;1.80;;;;;;;14.34;65.84;99187.94;5086514;28;20047;-69
2021/12/30 11:38:32;;;;;;;2.92;1.75;;;;;;;14.36;65.46;99199.34;5086739;28;20048;-69
2021/12/30 11:41:05;;;;;;;4.57;2.67;;;;;;;14.32;65.39;99197.84;5086673;28;20041;-69
2021/12/30 11:43:44;;;;;;;2.90;1.92;;;;;;;14.27;62.67;99202.66;5086669;28;20041;-69
2021/12/30 11:46:38;;;;;;;3.33;1.90;;;;;;;14.12;63.00;99193.97;5086673;28;20051;-69
2021/12/30 11:49:12;;;;;;;3.83;1.88;;;;;;;13.98;65.08;99202.09;5086537;28;20046;-70
2021/12/30 11:51:48;;;;;;;3.65;1.65;;;;;;;13.89;66.47;99200.09;5086390;28;20040;-70
2021/12/30 11:54:38;;;;;;;2.45;1.63;;;;;;;13.77;65.39;99192.00;5086166;28;20051;-69
2021/12/30 11:57:28;;;;;;;3.70;1.98;;;;;;;13.67;64.98;99200.75;5086716;28;20051;-69
2021/12/30 12:00:33;;;;;;;3.30;1.77;;;;;;;13.60;65.72;99204.81;5086480;28;20041;-70
2021/12/30 12:03:30;;;;;;;3.45;2.00;;;;;;;13.49;65.31;99197.56;5086138;28;20040;-69
2021/12/30 12:06:05;;;;;;;3.00;1.90;;;;;;;13.42;67.87;99190.97;5085212;28;20051;-70